createdAt,value
2022-11-24T00:06:54.052Z,69.60
2022-11-24T00:11:58.091Z,19.70
2022-11-24T00:17:02.688Z,34.80
2022-11-24T00:22:07.450Z,22.10
2022-11-24T00:35:41.588Z,21.10
2022-11-24T00:40:45.240Z,23.50
2022-11-24T00:46:41.222Z,26.60
2022-11-24T00:51:45.424Z,49.70
2022-11-24T00:56:49.620Z,26.50
2022-11-24T01:01:53.712Z,48.00
2022-11-24T01:07:02.325Z,26.70
2022-11-24T01:12:06.632Z,33.90
2022-11-24T01:17:10.886Z,21.80
2022-11-24T01:22:15.327Z,19.50
2022-11-24T01:27:45.339Z,35.70
2022-11-24T01:32:49.305Z,37.30
2022-11-24T01:37:53.531Z,22.70
2022-11-24T01:42:57.696Z,46.40
2022-11-24T01:48:06.448Z,34.20
2022-11-24T01:58:26.516Z,15.70
2022-11-24T02:03:37.581Z,39.80
2022-11-24T02:08:48.228Z,23.80
2022-11-24T02:13:55.910Z,18.00
2022-11-24T02:18:59.639Z,16.00
2022-11-24T02:32:33.833Z,33.40
2022-11-24T02:37:37.800Z,20.50
2022-11-24T02:43:39.512Z,49.80
2022-11-24T02:48:43.699Z,25.30
2022-11-24T02:53:47.529Z,19.90
2022-11-24T02:58:51.232Z,52.40
2022-11-24T03:03:54.963Z,38.60
2022-11-24T03:08:59.183Z,15.70
2022-11-24T03:14:03.127Z,29.00
2022-11-24T03:27:36.253Z,58.70
2022-11-24T03:32:40.420Z,49.90
2022-11-24T03:38:36.377Z,19.80
2022-11-24T03:43:43.826Z,16.30
2022-11-24T03:48:48.035Z,26.80
2022-11-24T03:53:52.049Z,26.20
2022-11-24T03:58:56.053Z,31.10
2022-11-24T04:04:00.237Z,23.60
2022-11-24T04:09:04.051Z,26.10
2022-11-24T04:14:13.357Z,55.80
2022-11-24T04:19:18.316Z,38.00
2022-11-24T04:24:22.628Z,33.40
2022-11-24T04:29:26.482Z,51.30
2022-11-24T04:34:30.758Z,55.80
2022-11-24T04:39:38.400Z,64.50
2022-11-24T04:44:42.257Z,40.90
2022-11-24T04:50:11.365Z,14.80
2022-11-24T04:55:40.940Z,34.10
2022-11-24T05:05:49.156Z,36.20
2022-11-24T05:10:52.686Z,40.20
2022-11-24T05:15:57.067Z,43.20
2022-11-24T05:21:02.070Z,29.70
2022-11-24T05:26:06.494Z,33.90
2022-11-24T05:46:12.417Z,29.10
2022-11-24T05:51:42.413Z,25.90
2022-11-24T05:56:46.277Z,34.30
2022-11-24T06:01:50.304Z,36.80
2022-11-24T06:06:53.875Z,20.00
2022-11-24T06:11:57.400Z,30.40
2022-11-24T06:17:01.370Z,35.80
2022-11-24T06:22:05.351Z,16.00
2022-11-24T06:27:09.350Z,63.70
2022-11-24T06:32:13.202Z,34.50
2022-11-24T06:38:08.238Z,18.50
2022-11-24T06:43:11.950Z,40.70
2022-11-24T06:49:31.863Z,76.40
2022-11-24T06:54:35.877Z,55.70
2022-11-24T07:00:08.442Z,38.60
2022-11-24T07:05:12.841Z,39.40
2022-11-24T07:11:16.090Z,23.60
2022-11-24T07:16:48.816Z,28.70
2022-11-24T07:21:53.031Z,32.90
2022-11-24T07:26:59.255Z,33.70
2022-11-24T07:33:06.149Z,95.80
2022-11-24T07:39:00.193Z,77.10
2022-11-24T07:44:45.721Z,26.70
2022-11-24T07:50:15.411Z,47.10
2022-11-24T07:56:15.865Z,115.80
2022-11-24T08:01:20.403Z,173.10
2022-11-24T08:06:28.678Z,242.70
2022-11-24T08:11:37.116Z,221.30
2022-11-24T08:16:42.404Z,236.60
2022-11-24T08:21:48.290Z,138.10
2022-11-24T08:28:09.243Z,98.00
2022-11-24T08:40:33.803Z,61.20
2022-11-24T08:52:45.529Z,91.70
2022-11-24T08:58:14.277Z,99.00
2022-11-24T09:03:17.917Z,83.20
2022-11-24T09:09:25.699Z,56.20
2022-11-24T09:14:33.335Z,63.90
2022-11-24T09:19:37.096Z,77.10
2022-11-24T09:26:06.475Z,56.70
2022-11-24T09:39:23.943Z,67.20
2022-11-24T09:45:08.241Z,111.20
2022-11-24T09:58:43.151Z,19.00
2022-11-24T10:04:44.084Z,30.20
2022-11-24T10:10:25.496Z,103.60
2022-11-24T10:29:41.218Z,77.00
2022-11-24T10:34:52.129Z,37.60
2022-11-24T10:40:57.402Z,150.80
2022-11-24T10:46:31.540Z,324.20
2022-11-24T10:58:45.836Z,82.30
2022-11-24T11:03:57.009Z,100.90
2022-11-24T11:16:40.573Z,56.70
2022-11-24T11:21:45.591Z,54.40
2022-11-24T11:27:25.175Z,54.40
2022-11-24T11:39:55.964Z,73.80
2022-11-24T11:45:22.039Z,76.70
2022-11-24T11:51:14.893Z,31.40
2022-11-24T11:56:37.113Z,36.20
2022-11-24T12:02:58.464Z,79.40
2022-11-24T12:15:18.940Z,103.70
2022-11-24T12:20:54.475Z,101.10
2022-11-24T12:26:41.878Z,75.10
2022-11-24T12:32:25.523Z,50.10
2022-11-24T12:37:29.143Z,20.30
2022-11-24T12:43:00.824Z,56.00
2022-11-24T12:48:47.302Z,78.50
2022-11-24T12:55:17.746Z,108.40
2022-11-24T13:00:35.370Z,86.20
2022-11-24T13:06:07.229Z,58.80
2022-11-24T13:11:23.446Z,40.10
2022-11-24T13:16:36.106Z,149.90
2022-11-24T13:21:43.171Z,65.30
2022-11-24T13:26:53.973Z,86.40
2022-11-24T13:32:07.000Z,237.50
2022-11-24T13:37:31.784Z,84.40
2022-11-24T13:42:58.182Z,51.30
2022-11-24T13:48:29.858Z,94.60
2022-11-24T13:53:49.787Z,99.30
2022-11-24T13:59:03.034Z,73.50
2022-11-24T14:05:24.442Z,124.40
2022-11-24T14:10:35.961Z,133.00
2022-11-24T14:30:18.834Z,88.10
2022-11-24T14:42:51.825Z,85.90
2022-11-24T14:55:17.384Z,55.10
2022-11-24T15:07:29.648Z,96.30
2022-11-24T15:28:03.536Z,187.40
2022-11-24T15:33:16.998Z,72.80
2022-11-24T15:39:43.961Z,83.30
2022-11-24T15:44:47.603Z,68.40
2022-11-24T16:04:33.972Z,169.00
2022-11-24T16:09:38.418Z,200.80
2022-11-24T16:15:33.817Z,105.40
2022-11-24T16:20:43.648Z,120.40
2022-11-24T16:25:47.812Z,327.50
2022-11-24T16:31:26.131Z,277.80
2022-11-24T16:37:53.708Z,417.30
2022-11-24T16:50:16.733Z,101.30
2022-11-24T16:55:20.823Z,104.40
2022-11-24T17:00:50.720Z,178.40
2022-11-24T17:06:01.997Z,220.70
2022-11-24T17:11:15.186Z,117.00
2022-11-24T17:16:22.970Z,314.40
2022-11-24T17:21:29.356Z,213.40
2022-11-24T17:26:35.656Z,117.40
2022-11-24T17:31:40.724Z,159.90
2022-11-24T17:36:46.348Z,294.60
2022-11-24T17:41:50.299Z,144.20
2022-11-24T17:46:54.605Z,271.30
2022-11-24T18:00:37.575Z,149.70
2022-11-24T18:15:08.423Z,140.30
2022-11-24T18:27:40.148Z,101.40
2022-11-24T18:32:44.121Z,104.20
2022-11-24T18:37:48.153Z,142.90
2022-11-24T18:42:52.447Z,144.50
2022-11-24T18:47:56.396Z,125.20
2022-11-24T19:07:18.750Z,88.80
2022-11-24T19:12:24.907Z,129.10
2022-11-24T19:18:20.547Z,93.20
2022-11-24T19:24:41.485Z,193.30
2022-11-24T19:29:47.406Z,176.10
2022-11-24T19:34:55.477Z,177.90
2022-11-24T19:39:59.515Z,158.40
2022-11-24T19:45:29.105Z,219.10
2022-11-24T19:56:10.426Z,247.90
2022-11-24T20:01:15.724Z,165.90
2022-11-24T20:06:20.023Z,176.50
2022-11-24T20:12:23.721Z,148.30
2022-11-24T20:17:30.913Z,152.40
2022-11-24T20:22:35.822Z,185.60
2022-11-24T20:27:39.729Z,194.80
2022-11-24T20:33:35.466Z,130.60
2022-11-24T20:38:41.860Z,115.70
2022-11-24T20:43:47.507Z,97.30
2022-11-24T20:48:53.211Z,113.60
2022-11-24T20:54:01.068Z,98.20
2022-11-24T20:59:05.628Z,85.70
2022-11-24T21:04:15.503Z,158.00
2022-11-24T21:09:20.126Z,158.20
2022-11-24T21:14:24.879Z,142.60
2022-11-24T21:19:29.625Z,150.70
2022-11-24T21:24:33.748Z,107.60
2022-11-24T21:29:37.672Z,121.80
2022-11-24T21:34:42.107Z,95.90
2022-11-24T21:39:46.210Z,124.50
2022-11-24T21:44:49.965Z,102.50
2022-11-24T21:49:53.477Z,110.10
2022-11-24T21:54:57.096Z,100.60
2022-11-24T22:00:00.923Z,33.40
2022-11-24T22:05:04.912Z,78.70
2022-11-24T22:10:09.801Z,96.80
2022-11-24T22:15:13.427Z,89.60
2022-11-24T22:27:06.790Z,60.90
2022-11-24T22:33:44.068Z,75.60
2022-11-24T22:38:52.982Z,92.30
2022-11-24T22:56:17.208Z,91.70
2022-11-24T23:01:24.433Z,185.50
2022-11-24T23:06:52.843Z,148.90
2022-11-24T23:11:56.548Z,147.00
2022-11-24T23:17:03.248Z,212.50
2022-11-24T23:22:07.056Z,192.80
2022-11-24T23:27:10.873Z,214.40
2022-11-24T23:32:17.456Z,250.40
2022-11-24T23:38:11.149Z,93.20
2022-11-24T23:43:14.689Z,49.60
2022-11-24T23:48:18.662Z,34.70
2022-11-24T23:53:27.501Z,64.30
2022-11-24T23:58:32.492Z,87.80
